セントジョンズ の空港の天気 - METARとTAF

VCバード国際空港 ( TAPA / ANU ) - アンティグア・バーブーダ セントジョンズ (アンティグア島)
飛行場実況気象(Metar)
観測時間08/21 15:00 AST (08/21 19:00 UTC)
風向・風速東 4m/s
視程10km以上
天気現象
少しの雲 雲底高度 610m
全天の4割程度の雲 雲底高度 1100m
気温29℃
湿度70%
気圧1015hPa
METARTAPA 211900Z 09008KT 050V140 9999 FEW020 SCT036 29/23 Q1015 NOSIG
過去の天気等 Google飛行場航空写真 Wunderground天気予報

過去48時間のMETAR

飛行場予報(TAF)
発表時間: 8/21 13:10 AST (8/21 17:10 UTC)
予報対象時間: 21日14時 AST ~ 22日14時 AST
風向・風速東 5m/s
視程10km以上
全天の8割程度の雲 雲底高度 550m
21日14時 AST ~ 22日12時 AST に 確率 40% で一時的に
天気現象しゅう雨
TAF TAPA 211710Z 2118/2218 09010KT 9999 BKN018
PROB40 TEMPO 2118/2216 SHRA